Time;durP1;ratioP1;P1;durP2;ratioP2;P2;SDS_P1;SDS_P2;PMS_P1;PMS_P2;Temp;Humidity;BMP_temperature;BMP_pressure;BME280_temperature;BME280_humidity;BME280_pressure;Samples;Min_cycle;Max_cycle;Signal;HPM_P1;HPM_P2
2023/01/01 00:01:42;;;;;;;130.20;75.13;;;8.90;99.90;;;;;;5003939;28;20205;-48
2023/01/01 00:04:13;;;;;;;157.50;77.07;;;8.80;99.90;;;;;;5011228;28;20225;-49
2023/01/01 00:06:41;;;;;;;137.40;76.63;;;8.80;99.90;;;;;;5011467;28;20229;-48
2023/01/01 00:11:54;;;;;;;117.10;66.70;;;8.60;99.90;;;;;;5011051;28;20220;-48
2023/01/01 00:14:21;;;;;;;125.77;67.10;;;8.60;99.90;;;;;;4992150;28;20234;-48
2023/01/01 00:16:48;;;;;;;117.73;67.90;;;8.50;99.90;;;;;;5004221;28;20205;-48
2023/01/01 00:19:15;;;;;;;135.47;76.70;;;8.40;99.90;;;;;;5005033;28;20210;-48
2023/01/01 00:21:42;;;;;;;128.93;78.40;;;8.50;99.90;;;;;;4997621;28;20213;-48
2023/01/01 00:24:10;;;;;;;145.37;91.87;;;8.50;99.90;;;;;;5014789;28;20284;-48
2023/01/01 00:26:37;;;;;;;176.93;98.27;;;8.50;99.90;;;;;;5014660;28;20225;-48
2023/01/01 00:29:05;;;;;;;159.63;92.30;;;8.40;99.90;;;;;;5007358;28;20565;-48
2023/01/01 00:31:32;;;;;;;169.73;95.47;;;8.30;99.90;;;;;;5009625;28;20248;-48
2023/01/01 00:33:59;;;;;;;194.43;110.07;;;8.20;99.90;;;;;;5002502;28;20733;-48
2023/01/01 00:36:28;;;;;;;190.27;108.87;;;8.20;99.90;;;;;;4994857;28;20558;-49
2023/01/01 00:38:55;;;;;;;183.00;103.07;;;8.20;99.90;;;;;;4997073;28;20205;-48
2023/01/01 00:41:24;;;;;;;171.93;101.20;;;8.20;99.90;;;;;;4997241;28;20264;-48
2023/01/01 00:43:51;;;;;;;159.57;89.63;;;8.20;99.90;;;;;;5002780;28;20733;-48
2023/01/01 00:46:18;;;;;;;135.50;83.60;;;8.20;99.90;;;;;;4994524;28;20641;-48
2023/01/01 00:48:45;;;;;;;138.40;81.70;;;8.30;99.90;;;;;;4995809;28;20205;-47
2023/01/01 00:51:12;;;;;;;113.90;70.43;;;8.30;99.90;;;;;;4998404;28;20627;-48
2023/01/01 00:53:39;;;;;;;116.77;69.63;;;8.40;99.90;;;;;;5002544;28;20851;-49
2023/01/01 00:56:07;;;;;;;139.93;84.43;;;8.40;99.90;;;;;;4994750;28;20337;-48
2023/01/01 00:58:35;;;;;;;112.47;67.87;;;8.40;99.90;;;;;;4994125;28;20269;-47
2023/01/01 01:01:02;;;;;;;120.67;73.40;;;8.50;99.90;;;;;;5000355;28;20549;-48
2023/01/01 01:03:29;;;;;;;128.30;75.33;;;8.50;99.90;;;;;;5001142;28;20226;-47
2023/01/01 01:05:58;;;;;;;120.10;74.20;;;8.60;99.90;;;;;;4994389;28;20312;-47
2023/01/01 01:08:25;;;;;;;138.87;87.27;;;8.80;99.90;;;;;;4993432;28;20588;-49
2023/01/01 01:10:52;;;;;;;131.50;81.20;;;8.80;99.90;;;;;;5005221;28;20199;-48
2023/01/01 01:13:19;;;;;;;124.03;78.60;;;8.70;99.90;;;;;;5001214;28;20758;-47
2023/01/01 01:15:48;;;;;;;121.40;70.83;;;8.60;99.90;;;;;;5012458;28;20200;-48
2023/01/01 01:18:15;;;;;;;116.57;71.97;;;8.50;99.90;;;;;;5009221;28;20205;-47
2023/01/01 01:20:50;;;;;;;125.10;79.67;;;8.50;99.90;;;;;;5002153;28;20262;-48
2023/01/01 01:23:17;;;;;;;112.17;63.43;;;8.40;99.90;;;;;;4999580;28;20283;-48
2023/01/01 01:25:44;;;;;;;110.50;64.80;;;8.40;99.90;;;;;;5011892;28;20204;-48
2023/01/01 01:28:11;;;;;;;95.03;60.87;;;8.50;99.90;;;;;;5013244;28;20205;-48
2023/01/01 01:30:38;;;;;;;89.53;60.47;;;8.50;99.90;;;;;;5002428;28;20209;-48
2023/01/01 01:33:06;;;;;;;101.50;62.67;;;8.50;99.90;;;;;;5004336;28;20237;-48
2023/01/01 01:35:33;;;;;;;98.37;65.57;;;8.60;99.90;;;;;;5010560;28;20263;-48
2023/01/01 01:38:00;;;;;;;93.23;59.97;;;8.60;99.90;;;;;;5013448;28;20248;-48
2023/01/01 01:40:27;;;;;;;104.23;62.40;;;8.60;99.90;;;;;;4998670;28;20583;-48
2023/01/01 01:42:54;;;;;;;102.60;60.87;;;8.70;99.90;;;;;;4999383;28;20649;-48
2023/01/01 01:45:21;;;;;;;89.70;57.30;;;8.60;99.90;;;;;;5008486;28;20282;-48
2023/01/01 01:47:51;;;;;;;77.50;54.90;;;8.60;99.90;;;;;;5012994;28;20787;-47
2023/01/01 01:50:24;;;;;;;79.47;52.60;;;8.70;99.90;;;;;;5004988;28;20217;-48
2023/01/01 01:53:01;;;;;;;67.10;49.93;;;8.70;99.90;;;;;;5012488;28;20646;-48
2023/01/01 01:55:31;;;;;;;64.97;47.03;;;8.60;99.90;;;;;;4999358;28;20209;-48
2023/01/01 01:57:58;;;;;;;64.30;42.67;;;8.50;99.90;;;;;;4973940;28;20277;-47
2023/01/01 02:00:25;;;;;;;69.83;43.27;;;8.50;99.90;;;;;;4997694;28;20206;-48
2023/01/01 02:02:56;;;;;;;58.00;39.13;;;8.50;99.90;;;;;;5012402;28;20275;-49
2023/01/01 02:05:25;;;;;;;51.97;37.87;;;8.50;99.90;;;;;;5002030;28;20209;-49
2023/01/01 02:07:53;;;;;;;53.13;38.10;;;8.50;99.90;;;;;;5012268;28;20275;-49
2023/01/01 02:10:20;;;;;;;47.87;34.43;;;8.40;99.90;;;;;;5002145;28;20205;-48
2023/01/01 02:12:48;;;;;;;48.83;35.57;;;8.30;99.90;;;;;;5001257;28;20280;-49
2023/01/01 02:15:15;;;;;;;47.33;34.50;;;8.30;99.90;;;;;;4993412;28;20213;-49
2023/01/01 02:17:54;;;;;;;41.57;30.83;;;8.30;99.90;;;;;;4988739;28;20196;-49
2023/01/01 02:20:33;;;;;;;43.50;31.67;;;8.20;99.90;;;;;;4992977;28;20204;-48
2023/01/01 02:23:34;;;;;;;49.30;35.33;;;8.20;99.90;;;;;;4973535;28;20288;-49
2023/01/01 02:26:37;;;;;;;48.10;33.57;;;8.10;99.90;;;;;;4973743;28;20293;-48
2023/01/01 02:29:14;;;;;;;41.77;31.73;;;8.10;99.90;;;;;;4985124;28;20201;-49
2023/01/01 02:31:47;;;;;;;43.73;32.20;;;8.20;99.90;;;;;;4992821;28;20201;-49
2023/01/01 02:34:20;;;;;;;44.50;33.43;;;8.10;99.90;;;;;;5010301;28;20302;-48
2023/01/01 02:36:51;;;;;;;46.77;33.43;;;8.10;99.90;;;;;;4997712;28;20203;-47
2023/01/01 02:39:21;;;;;;;41.60;30.20;;;8.10;99.90;;;;;;4984211;28;20240;-48
2023/01/01 02:41:52;;;;;;;47.77;32.10;;;8.00;99.90;;;;;;4997317;28;20203;-48
2023/01/01 02:44:22;;;;;;;46.07;32.07;;;8.00;99.90;;;;;;5024073;28;20225;-49
2023/01/01 02:46:49;;;;;;;41.13;29.67;;;7.90;99.90;;;;;;5016182;28;20226;-48
2023/01/01 02:49:16;;;;;;;44.37;32.70;;;7.90;99.90;;;;;;5016268;28;20221;-51
2023/01/01 02:52:01;;;;;;;42.13;31.80;;;7.90;99.90;;;;;;5009654;28;20366;-49
2023/01/01 02:54:35;;;;;;;41.00;30.10;;;7.90;99.90;;;;;;5016244;28;20223;-48
2023/01/01 02:57:10;;;;;;;48.70;34.77;;;7.80;99.90;;;;;;5007136;28;20201;-49
2023/01/01 03:02:44;;;;;;;55.20;37.73;;;7.70;99.90;;;;;;5012338;28;20224;-48
2023/01/01 03:05:19;;;;;;;54.83;40.07;;;8.00;99.90;;;;;;5000926;28;20256;-47
2023/01/01 03:07:59;;;;;;;49.20;35.53;;;8.00;99.90;;;;;;5001384;28;20220;-48
2023/01/01 03:10:35;;;;;;;48.50;35.23;;;8.00;99.90;;;;;;5007910;28;20199;-48
2023/01/01 03:13:09;;;;;;;50.03;35.63;;;8.00;99.90;;;;;;5011985;28;20224;-48
2023/01/01 03:15:42;;;;;;;54.07;35.77;;;8.00;99.90;;;;;;5005849;28;20209;-48
2023/01/01 03:18:15;;;;;;;48.70;34.20;;;8.00;99.90;;;;;;4990831;28;20197;-48
2023/01/01 03:20:46;;;;;;;54.87;37.47;;;8.00;99.90;;;;;;5005698;28;20204;-48
2023/01/01 03:23:18;;;;;;;46.40;32.03;;;8.00;99.90;;;;;;5003755;28;20284;-48
2023/01/01 03:25:49;;;;;;;48.77;31.97;;;8.00;99.90;;;;;;5012042;28;20255;-49
2023/01/01 03:28:22;;;;;;;41.13;29.80;;;8.10;99.90;;;;;;4999810;28;20280;-49
2023/01/01 03:30:52;;;;;;;38.37;27.57;;;8.30;99.90;;;;;;5007671;28;20206;-48
2023/01/01 03:33:26;;;;;;;40.70;25.70;;;8.30;99.90;;;;;;5000015;28;20237;-49
2023/01/01 03:35:57;;;;;;;31.33;24.10;;;8.40;99.90;;;;;;4991742;28;20216;-48
2023/01/01 03:38:29;;;;;;;28.17;21.50;;;8.50;99.90;;;;;;4986717;28;20198;-47
2023/01/01 03:41:02;;;;;;;32.73;21.23;;;8.50;99.90;;;;;;4992378;28;20625;-48
2023/01/01 03:43:39;;;;;;;29.47;20.80;;;8.50;99.90;;;;;;4992264;28;20282;-48
2023/01/01 03:46:08;;;;;;;25.87;20.03;;;8.50;99.90;;;;;;4990155;28;20261;-47
2023/01/01 03:51:23;;;;;;;24.80;17.97;;;8.60;99.90;;;;;;4996708;28;20676;-48
2023/01/01 03:53:52;;;;;;;25.77;17.57;;;8.70;99.90;;;;;;5014732;28;20716;-48
2023/01/01 03:56:25;;;;;;;26.50;18.37;;;8.70;99.90;;;;;;5008624;28;20202;-48
2023/01/01 03:58:56;;;;;;;26.77;17.63;;;8.60;99.90;;;;;;5001019;28;20261;-49
2023/01/01 04:01:30;;;;;;;34.60;20.87;;;8.60;99.90;;;;;;4995816;28;20268;-48
2023/01/01 04:03:58;;;;;;;24.10;19.63;;;8.60;99.90;;;;;;4995827;28;20224;-49
2023/01/01 04:06:26;;;;;;;24.87;20.10;;;8.60;99.90;;;;;;4992051;28;20270;-48
2023/01/01 04:08:55;;;;;;;32.60;21.53;;;8.60;99.90;;;;;;5006111;28;20553;-48
2023/01/01 04:14:10;;;;;;;41.27;28.33;;;8.60;99.90;;;;;;4986829;28;20228;-48
2023/01/01 04:16:39;;;;;;;37.47;25.10;;;8.60;99.90;;;;;;5010221;28;20266;-48
2023/01/01 04:19:06;;;;;;;29.77;22.10;;;8.70;99.90;;;;;;5006771;28;20329;-48
2023/01/01 04:21:33;;;;;;;33.20;23.87;;;8.70;99.90;;;;;;5001856;28;20204;-48
2023/01/01 04:24:00;;;;;;;39.63;28.00;;;8.70;99.90;;;;;;5007359;28;20224;-47
2023/01/01 04:26:27;;;;;;;38.03;27.30;;;8.60;99.90;;;;;;4995405;28;20686;-48
2023/01/01 04:28:54;;;;;;;39.57;29.07;;;8.60;99.90;;;;;;4991709;28;20201;-47
2023/01/01 04:31:21;;;;;;;44.57;30.63;;;8.70;99.90;;;;;;5014601;28;20209;-47
2023/01/01 04:33:53;;;;;;;44.73;30.40;;;8.60;99.90;;;;;;5014608;28;20236;-48
2023/01/01 04:36:20;;;;;;;45.20;30.80;;;8.40;99.90;;;;;;5010787;28;20684;-47
2023/01/01 04:38:47;;;;;;;46.57;32.37;;;8.30;99.90;;;;;;4997410;28;20629;-48
2023/01/01 04:41:14;;;;;;;53.73;37.23;;;8.30;99.90;;;;;;4990769;28;20202;-47
2023/01/01 04:43:43;;;;;;;50.30;37.07;;;8.30;99.90;;;;;;4996632;28;20276;-48
2023/01/01 04:46:10;;;;;;;49.43;36.97;;;8.20;99.90;;;;;;4996417;28;20214;-49
2023/01/01 04:48:37;;;;;;;57.13;37.43;;;8.20;99.90;;;;;;4996505;28;20221;-48
2023/01/01 04:51:07;;;;;;;51.87;34.67;;;8.20;99.90;;;;;;4986716;28;20210;-48
2023/01/01 04:53:35;;;;;;;55.17;34.10;;;8.30;99.90;;;;;;4994954;28;20311;-48
2023/01/01 04:56:04;;;;;;;40.93;29.37;;;8.30;99.90;;;;;;5001700;28;20666;-48
2023/01/01 04:58:31;;;;;;;50.57;32.90;;;8.10;99.90;;;;;;5010723;28;20200;-47
2023/01/01 05:00:58;;;;;;;49.17;33.63;;;8.00;99.90;;;;;;5004482;28;20202;-48
2023/01/01 05:03:25;;;;;;;42.60;29.13;;;7.90;99.90;;;;;;4989390;28;20292;-48
2023/01/01 05:06:00;;;;;;;35.77;27.40;;;7.90;99.90;;;;;;4993449;28;20673;-48
2023/01/01 05:08:29;;;;;;;39.90;28.03;;;7.90;99.90;;;;;;5000005;28;20640;-48
2023/01/01 05:11:00;;;;;;;37.97;25.63;;;7.90;99.90;;;;;;4994515;28;20288;-48
2023/01/01 05:13:28;;;;;;;37.93;26.47;;;7.80;99.90;;;;;;4994420;28;20316;-49
2023/01/01 05:15:55;;;;;;;34.77;24.77;;;7.90;99.90;;;;;;5001290;28;20217;-47
2023/01/01 05:18:22;;;;;;;33.33;22.73;;;7.90;99.90;;;;;;5004261;28;20208;-48
2023/01/01 05:20:49;;;;;;;31.30;23.10;;;8.00;99.90;;;;;;4991590;28;20261;-49
2023/01/01 05:23:16;;;;;;;29.90;23.50;;;8.00;99.90;;;;;;4993223;28;20305;-48
2023/01/01 05:25:45;;;;;;;25.73;18.93;;;7.90;99.90;;;;;;4998457;28;20228;-47
2023/01/01 05:28:12;;;;;;;30.47;21.03;;;7.90;99.90;;;;;;4998045;28;20574;-47
2023/01/01 05:30:40;;;;;;;33.80;21.07;;;7.80;99.90;;;;;;5002915;28;20210;-49
2023/01/01 05:33:07;;;;;;;29.17;20.03;;;7.80;99.90;;;;;;5011349;28;20318;-49
2023/01/01 05:35:34;;;;;;;32.20;21.10;;;7.80;99.90;;;;;;4998078;28;20334;-49
2023/01/01 05:38:02;;;;;;;25.23;17.63;;;7.70;99.90;;;;;;4994966;28;20202;-47
2023/01/01 05:40:29;;;;;;;25.60;17.13;;;7.60;99.90;;;;;;4988420;28;20264;-47
2023/01/01 05:42:58;;;;;;;27.70;19.87;;;7.60;99.90;;;;;;4999767;28;20218;-48
2023/01/01 05:45:25;;;;;;;27.13;19.40;;;7.60;99.90;;;;;;5007068;28;20200;-48
2023/01/01 05:47:52;;;;;;;22.40;16.10;;;7.50;99.90;;;;;;4994512;28;20717;-48
2023/01/01 05:50:19;;;;;;;25.37;18.90;;;7.50;99.90;;;;;;4998759;28;20197;-48
2023/01/01 05:52:46;;;;;;;26.53;19.83;;;7.50;99.90;;;;;;4991864;28;20308;-48
2023/01/01 05:55:13;;;;;;;36.63;25.80;;;7.40;99.90;;;;;;4986291;28;20271;-48
2023/01/01 05:57:40;;;;;;;37.63;25.40;;;7.30;99.90;;;;;;5004888;28;20611;-48
2023/01/01 06:00:10;;;;;;;33.83;25.57;;;7.20;99.90;;;;;;5013070;28;20211;-48
2023/01/01 06:02:37;;;;;;;30.27;23.47;;;7.20;99.90;;;;;;5013101;28;20284;-48
2023/01/01 06:05:04;;;;;;;46.07;31.43;;;7.10;99.90;;;;;;5010178;28;20205;-48
2023/01/01 06:07:31;;;;;;;38.93;31.00;;;7.10;99.90;;;;;;5004379;28;20665;-47
2023/01/01 06:09:58;;;;;;;38.90;26.63;;;7.20;99.90;;;;;;5006482;28;20632;-47
2023/01/01 06:12:25;;;;;;;34.17;25.63;;;7.20;99.90;;;;;;4974104;28;20206;-48
2023/01/01 06:14:52;;;;;;;42.50;31.67;;;7.00;99.90;;;;;;4980320;28;20620;-48
2023/01/01 06:17:20;;;;;;;43.40;30.30;;;7.00;99.90;;;;;;5004414;28;20205;-48
2023/01/01 06:19:48;;;;;;;38.63;28.03;;;6.90;99.90;;;;;;5012883;28;20209;-47
2023/01/01 06:22:15;;;;;;;42.20;28.10;;;6.80;99.90;;;;;;5012481;28;20662;-47
2023/01/01 06:24:42;;;;;;;37.47;25.87;;;6.80;99.90;;;;;;5010625;28;20283;-47
2023/01/01 06:27:09;;;;;;;32.63;25.47;;;6.80;99.90;;;;;;4995617;28;20254;-48
2023/01/01 06:29:36;;;;;;;35.27;24.27;;;6.80;99.90;;;;;;4973735;28;20211;-48
2023/01/01 06:32:03;;;;;;;33.23;24.87;;;6.70;99.90;;;;;;4973580;28;20210;-48
2023/01/01 06:34:31;;;;;;;36.63;26.23;;;6.70;99.90;;;;;;4991688;28;20233;-47
2023/01/01 06:37:01;;;;;;;37.40;27.13;;;6.70;99.90;;;;;;5004255;28;20196;-47
2023/01/01 06:39:29;;;;;;;38.37;25.63;;;6.70;99.90;;;;;;5012373;28;20202;-47
2023/01/01 06:41:56;;;;;;;40.17;29.67;;;6.70;99.90;;;;;;5017955;28;20209;-48
2023/01/01 06:44:23;;;;;;;42.97;28.60;;;6.70;99.90;;;;;;5001556;28;20728;-48
2023/01/01 06:46:50;;;;;;;48.87;31.23;;;6.80;99.90;;;;;;5010472;28;20216;-48
2023/01/01 06:49:17;;;;;;;37.33;28.03;;;6.80;99.90;;;;;;5012857;28;20220;-48
2023/01/01 06:51:45;;;;;;;39.40;27.33;;;6.80;99.90;;;;;;5012069;28;20204;-47
2023/01/01 06:54:12;;;;;;;40.20;30.20;;;6.70;99.90;;;;;;5012228;28;20248;-48
2023/01/01 06:56:40;;;;;;;41.00;29.80;;;6.70;99.90;;;;;;5009791;28;20672;-48
2023/01/01 06:59:07;;;;;;;32.73;26.47;;;6.80;99.90;;;;;;5012009;28;20551;-48
2023/01/01 07:01:35;;;;;;;42.37;31.93;;;6.70;99.90;;;;;;5011947;28;20220;-47
2023/01/01 07:04:04;;;;;;;38.97;28.17;;;6.70;99.90;;;;;;4992624;28;20248;-48
2023/01/01 07:06:32;;;;;;;37.30;26.90;;;6.60;99.90;;;;;;5007416;28;20212;-48
2023/01/01 07:09:01;;;;;;;36.63;27.13;;;6.60;99.90;;;;;;5011771;28;20225;-48
2023/01/01 07:11:28;;;;;;;39.03;30.07;;;6.50;99.90;;;;;;5010982;28;20207;-49
2023/01/01 07:13:55;;;;;;;43.30;28.77;;;6.40;99.90;;;;;;5011743;28;20228;-48
2023/01/01 07:16:23;;;;;;;42.27;29.47;;;6.40;99.90;;;;;;5010910;28;20216;-48
2023/01/01 07:18:51;;;;;;;44.03;28.97;;;6.40;99.90;;;;;;5001849;28;20203;-48
2023/01/01 07:21:30;;;;;;;40.67;27.40;;;6.40;99.90;;;;;;4992266;28;20207;-47
2023/01/01 07:24:01;;;;;;;39.83;25.73;;;6.50;99.90;;;;;;4992228;28;20661;-49
2023/01/01 07:26:29;;;;;;;34.80;23.87;;;6.50;99.90;;;;;;5011614;28;20226;-48
2023/01/01 07:28:57;;;;;;;40.47;29.07;;;6.40;99.90;;;;;;5010393;28;20224;-48
2023/01/01 07:31:24;;;;;;;39.87;29.07;;;6.50;99.90;;;;;;5018351;28;20204;-48
2023/01/01 07:33:51;;;;;;;45.40;28.37;;;6.60;99.90;;;;;;5018275;28;20226;-47
2023/01/01 07:36:18;;;;;;;35.07;25.57;;;6.70;99.90;;;;;;5008837;28;20667;-48
2023/01/01 07:38:45;;;;;;;37.63;26.90;;;6.70;99.90;;;;;;5007965;28;20242;-47
2023/01/01 07:41:13;;;;;;;41.60;28.63;;;6.70;99.90;;;;;;4998662;28;20353;-48
2023/01/01 07:43:40;;;;;;;36.80;25.63;;;6.80;99.90;;;;;;4998860;28;20229;-48
2023/01/01 07:46:10;;;;;;;38.67;27.80;;;6.80;99.90;;;;;;5002492;28;20882;-49
2023/01/01 07:48:37;;;;;;;42.53;29.27;;;6.90;99.90;;;;;;5009837;28;20701;-48
2023/01/01 07:51:04;;;;;;;44.00;29.83;;;6.90;99.90;;;;;;5009031;28;20204;-50
2023/01/01 07:53:31;;;;;;;38.40;28.10;;;6.90;99.90;;;;;;4987970;28;20225;-48
2023/01/01 07:55:58;;;;;;;43.90;29.77;;;6.90;99.90;;;;;;4986893;28;20204;-49
2023/01/01 07:58:26;;;;;;;43.27;29.30;;;6.90;99.90;;;;;;5006438;28;20200;-51
2023/01/01 08:00:53;;;;;;;44.70;28.50;;;6.90;99.90;;;;;;4999864;28;20204;-48
2023/01/01 08:03:20;;;;;;;36.47;26.03;;;7.00;99.90;;;;;;5001398;28;20228;-48
2023/01/01 08:05:47;;;;;;;45.80;27.83;;;7.00;99.90;;;;;;5009729;28;20200;-48
2023/01/01 08:08:14;;;;;;;39.20;26.10;;;7.10;99.90;;;;;;5001736;28;20308;-47
2023/01/01 08:10:41;;;;;;;40.53;27.53;;;7.20;99.90;;;;;;4989107;28;20208;-49
2023/01/01 08:13:09;;;;;;;31.13;23.07;;;7.30;99.90;;;;;;5009695;28;20217;-48
2023/01/01 08:15:37;;;;;;;34.57;23.37;;;7.30;99.90;;;;;;5018033;28;20208;-48
2023/01/01 08:18:05;;;;;;;40.43;28.00;;;7.40;99.90;;;;;;5017696;28;20216;-49
2023/01/01 08:20:33;;;;;;;35.53;24.67;;;7.50;99.90;;;;;;5011348;28;20201;-48
2023/01/01 08:23:00;;;;;;;37.40;27.43;;;7.60;99.90;;;;;;5003228;28;20736;-47
2023/01/01 08:25:27;;;;;;;30.17;24.90;;;7.70;99.90;;;;;;5009637;28;20216;-49
2023/01/01 08:27:54;;;;;;;32.20;23.33;;;7.90;99.90;;;;;;5002018;28;20205;-48
2023/01/01 08:30:21;;;;;;;38.90;25.53;;;8.20;99.90;;;;;;5012983;28;20197;-48
2023/01/01 08:32:50;;;;;;;29.03;21.67;;;8.50;99.90;;;;;;5000793;28;20289;-48
2023/01/01 08:35:17;;;;;;;24.27;17.33;;;8.80;99.90;;;;;;5004231;28;20754;-48
2023/01/01 08:37:44;;;;;;;19.20;13.37;;;9.00;99.90;;;;;;5014215;28;20209;-49
2023/01/01 08:40:13;;;;;;;21.90;15.43;;;9.20;99.90;;;;;;5012706;28;20635;-49
2023/01/01 08:42:40;;;;;;;15.53;11.53;;;9.40;99.90;;;;;;5008180;28;20310;-48
2023/01/01 08:45:08;;;;;;;16.50;11.50;;;9.50;99.90;;;;;;5011947;28;20200;-48
2023/01/01 08:47:35;;;;;;;14.23;11.27;;;9.80;99.90;;;;;;5034078;28;20209;-48
2023/01/01 08:50:05;;;;;;;11.00;9.27;;;10.10;99.90;;;;;;5034147;28;20225;-49
2023/01/01 08:52:32;;;;;;;12.50;9.47;;;10.30;99.90;;;;;;5026502;28;20267;-48
2023/01/01 08:54:59;;;;;;;13.13;10.17;;;10.50;99.90;;;;;;5014237;28;20198;-48
2023/01/01 08:57:29;;;;;;;11.07;8.70;;;10.80;99.90;;;;;;5014084;28;20207;-48
2023/01/01 08:59:56;;;;;;;7.37;6.67;;;11.00;99.90;;;;;;5011721;28;20235;-49
2023/01/01 09:02:43;;;;;;;10.97;7.37;;;11.30;99.90;;;;;;4994689;28;20206;-47
2023/01/01 09:05:11;;;;;;;8.70;6.83;;;11.40;99.90;;;;;;5005295;28;20577;-49
2023/01/01 09:07:38;;;;;;;7.70;6.77;;;11.50;99.90;;;;;;5014667;28;20264;-48
2023/01/01 09:10:07;;;;;;;7.93;7.13;;;11.70;99.90;;;;;;5003952;28;20284;-48
2023/01/01 09:12:33;;;;;;;7.03;6.00;;;11.90;99.90;;;;;;5013795;28;20275;-48
2023/01/01 09:15:00;;;;;;;9.27;7.10;;;12.00;99.90;;;;;;5014090;28;20260;-48
2023/01/01 09:17:27;;;;;;;8.07;7.23;;;12.10;99.90;;;;;;5012710;28;20213;-48
2023/01/01 09:19:54;;;;;;;7.20;6.50;;;12.40;99.90;;;;;;5012735;28;20252;-49
2023/01/01 09:22:23;;;;;;;6.43;5.70;;;12.50;99.90;;;;;;5013652;28;20213;-48
2023/01/01 09:24:50;;;;;;;6.77;6.07;;;12.50;99.90;;;;;;5013781;28;20750;-48
2023/01/01 09:27:17;;;;;;;5.37;4.97;;;12.60;99.90;;;;;;5017325;28;20206;-48
2023/01/01 09:29:44;;;;;;;5.93;5.33;;;12.50;99.90;;;;;;5033552;28;20251;-48
2023/01/01 09:32:11;;;;;;;6.13;5.17;;;12.50;99.90;;;;;;5033241;28;20247;-48
2023/01/01 09:34:38;;;;;;;6.77;5.83;;;12.50;99.90;;;;;;5020737;28;20658;-48
2023/01/01 09:37:05;;;;;;;5.30;4.87;;;12.50;99.90;;;;;;5013561;28;20201;-48
2023/01/01 09:39:33;;;;;;;6.70;5.70;;;12.60;99.90;;;;;;5013597;28;20206;-49
2023/01/01 09:42:22;;;;;;;6.37;5.77;;;12.70;99.90;;;;;;5013690;28;20203;-49
2023/01/01 09:45:17;;;;;;;6.10;5.50;;;12.80;99.90;;;;;;5013537;28;20261;-49
2023/01/01 09:47:46;;;;;;;4.87;4.47;;;12.80;99.90;;;;;;5010014;28;20201;-49
2023/01/01 09:50:16;;;;;;;8.47;5.60;;;12.90;99.90;;;;;;5012127;28;20835;-47
2023/01/01 09:52:50;;;;;;;5.93;5.13;;;13.20;99.90;;;;;;5004572;28;20226;-48
2023/01/01 09:55:25;;;;;;;5.47;5.03;;;13.30;99.90;;;;;;5013523;28;20254;-50
2023/01/01 09:57:52;;;;;;;5.23;4.83;;;13.30;99.90;;;;;;5013186;28;20210;-48
2023/01/01 10:00:20;;;;;;;5.07;4.67;;;13.30;99.90;;;;;;5013132;28;20622;-48
2023/01/01 10:03:02;;;;;;;5.07;4.60;;;13.40;99.90;;;;;;5006806;28;20311;-49
2023/01/01 10:05:37;;;;;;;4.57;4.17;;;13.50;99.90;;;;;;5013467;28;20215;-48
2023/01/01 10:08:10;;;;;;;4.07;3.67;;;13.50;99.90;;;;;;4999750;28;20208;-49
2023/01/01 10:10:40;;;;;;;4.67;3.90;;;13.70;99.90;;;;;;4999747;28;20235;-50
2023/01/01 10:13:18;;;;;;;4.30;3.90;;;13.80;99.90;;;;;;5035291;22;20222;-50
2023/01/01 10:15:56;;;;;;;4.07;3.77;;;14.20;99.90;;;;;;5023612;28;20206;-49
2023/01/01 10:18:26;;;;;;;4.10;3.70;;;14.60;99.90;;;;;;5022706;28;20620;-50
2023/01/01 10:21:01;;;;;;;4.20;3.90;;;15.00;99.90;;;;;;5021760;28;20681;-50
2023/01/01 10:23:33;;;;;;;4.53;4.23;;;15.50;99.90;;;;;;5028493;28;20228;-50
2023/01/01 10:26:08;;;;;;;4.40;4.10;;;15.90;99.90;;;;;;5013158;28;20210;-50
2023/01/01 10:28:42;;;;;;;5.37;5.00;;;16.30;99.90;;;;;;5026093;28;20210;-50
2023/01/01 10:31:16;;;;;;;4.20;3.90;;;16.80;99.90;;;;;;5032410;28;20202;-50
2023/01/01 10:33:44;;;;;;;4.87;4.53;;;16.90;99.90;;;;;;5030780;28;20306;-50
2023/01/01 10:36:14;;;;;;;4.63;4.23;;;17.00;99.90;;;;;;5032133;28;20253;-50
2023/01/01 10:38:41;;;;;;;4.93;3.80;;;17.30;99.90;;;;;;5032057;28;20199;-50
2023/01/01 10:41:11;;;;;;;4.37;4.17;;;17.20;99.90;;;;;;5032213;28;20206;-49
2023/01/01 10:43:38;;;;;;;3.90;3.70;;;17.00;99.90;;;;;;5030496;28;20226;-50
2023/01/01 10:46:06;;;;;;;4.07;3.83;;;16.70;99.90;;;;;;5032016;28;20202;-49
2023/01/01 10:48:34;;;;;;;5.00;4.30;;;16.50;99.90;;;;;;5031659;28;20620;-50
2023/01/01 10:51:04;;;;;;;4.60;4.20;;;16.30;99.90;;;;;;5020836;28;20199;-50
2023/01/01 10:53:34;;;;;;;5.53;5.13;;;16.10;99.90;;;;;;5031833;28;20226;-50
2023/01/01 10:56:08;;;;;;;5.67;5.27;;;16.10;99.90;;;;;;5031786;28;20207;-49
2023/01/01 10:58:42;;;;;;;6.37;5.80;;;15.80;99.90;;;;;;5031505;28;20203;-50
2023/01/01 11:01:11;;;;;;;6.37;5.77;;;15.70;99.90;;;;;;5011431;28;20261;-52
2023/01/01 11:03:51;;;;;;;6.30;5.80;;;15.60;99.90;;;;;;5011929;28;20223;-51
2023/01/01 11:06:22;;;;;;;6.50;5.80;;;15.50;99.90;;;;;;5012035;28;20203;-51
2023/01/01 11:08:50;;;;;;;5.40;4.87;;;15.40;99.90;;;;;;5011716;28;20207;-51
2023/01/01 11:11:25;;;;;;;5.80;5.30;;;15.50;99.90;;;;;;5012133;28;20298;-52
2023/01/01 11:13:56;;;;;;;5.90;5.33;;;15.50;99.90;;;;;;5011750;28;20226;-52
2023/01/01 11:16:23;;;;;;;4.93;4.50;;;15.60;99.90;;;;;;5012598;28;20686;-51
2023/01/01 11:18:51;;;;;;;5.67;5.17;;;15.60;99.90;;;;;;5027793;28;20256;-52
2023/01/01 11:21:23;;;;;;;5.97;5.47;;;15.60;99.90;;;;;;5031438;28;20622;-52
2023/01/01 11:24:08;;;;;;;4.80;4.40;;;15.60;99.90;;;;;;5031420;28;20717;-52
2023/01/01 11:26:35;;;;;;;4.30;4.00;;;15.70;99.90;;;;;;5036731;28;20804;-52
2023/01/01 11:29:23;;;;;;;5.47;4.43;;;15.60;99.90;;;;;;5051131;28;20271;-51
2023/01/01 11:31:51;;;;;;;4.33;3.97;;;15.60;99.90;;;;;;5030397;28;20202;-51
2023/01/01 11:34:30;;;;;;;4.90;4.60;;;15.70;99.90;;;;;;5017861;28;20293;-51
2023/01/01 11:37:11;;;;;;;5.40;5.10;;;15.60;99.90;;;;;;5011648;28;20207;-52
2023/01/01 11:39:41;;;;;;;5.67;5.23;;;15.70;99.90;;;;;;5011867;28;20626;-51
2023/01/01 11:42:08;;;;;;;8.07;6.50;;;15.70;99.90;;;;;;5011850;28;20277;-51
2023/01/01 11:44:43;;;;;;;5.97;5.57;;;15.70;99.90;;;;;;5019806;28;20572;-51
2023/01/01 11:47:23;;;;;;;9.67;8.67;;;15.70;99.90;;;;;;5031269;28;20256;-51
2023/01/01 11:49:55;;;;;;;7.57;6.87;;;15.70;99.90;;;;;;5029568;28;20218;-51
2023/01/01 11:52:35;;;;;;;6.33;5.83;;;15.70;99.90;;;;;;5011884;28;20218;-51
2023/01/01 11:55:10;;;;;;;6.00;5.50;;;15.70;99.90;;;;;;5016510;28;20261;-52
2023/01/01 11:57:41;;;;;;;6.03;4.90;;;15.70;99.90;;;;;;5031231;28;20662;-51
2023/01/01 12:00:14;;;;;;;4.53;4.23;;;15.70;99.90;;;;;;5025395;28;20199;-52
2023/01/01 12:02:52;;;;;;;5.20;4.80;;;15.80;99.90;;;;;;5036307;28;20261;-52
2023/01/01 12:05:23;;;;;;;6.17;5.10;;;15.80;99.90;;;;;;5031467;28;20210;-51
2023/01/01 12:07:51;;;;;;;4.80;4.50;;;15.90;99.90;;;;;;5020881;28;20671;-52
2023/01/01 12:10:23;;;;;;;5.47;4.97;;;15.90;99.90;;;;;;5011451;28;20223;-52
2023/01/01 12:12:56;;;;;;;5.63;5.23;;;15.90;99.90;;;;;;5024532;28;20230;-51
2023/01/01 12:15:29;;;;;;;5.70;5.07;;;15.80;99.90;;;;;;5034851;28;20253;-52
2023/01/01 12:18:03;;;;;;;6.87;6.17;;;15.80;99.90;;;;;;5035074;28;20187;-51
2023/01/01 12:20:34;;;;;;;6.83;6.20;;;15.90;99.90;;;;;;5035021;28;20275;-51
2023/01/01 12:23:02;;;;;;;5.30;4.80;;;15.90;99.90;;;;;;5033365;28;20287;-51
2023/01/01 12:25:36;;;;;;;5.40;5.00;;;16.00;99.90;;;;;;4996496;28;20203;-52
2023/01/01 12:28:17;;;;;;;5.40;4.93;;;16.00;99.90;;;;;;5009169;28;20278;-52
2023/01/01 12:30:55;;;;;;;5.93;5.23;;;16.00;99.90;;;;;;5011827;28;20218;-51
2023/01/01 12:33:42;;;;;;;7.30;5.10;;;16.00;99.90;;;;;;5012789;28;20223;-51
2023/01/01 12:36:21;;;;;;;5.93;4.77;;;16.00;99.90;;;;;;5021841;28;20206;-52
2023/01/01 12:39:24;;;;;;;5.53;4.97;;;16.00;99.90;;;;;;5011491;28;20769;-51
2023/01/01 12:42:01;;;;;;;5.47;4.97;;;16.10;99.90;;;;;;5019608;28;20249;-52
2023/01/01 12:44:37;;;;;;;6.23;4.33;;;16.10;99.90;;;;;;5014264;28;20227;-51
2023/01/01 12:47:16;;;;;;;4.67;4.37;;;16.10;99.90;;;;;;5011283;28;20260;-52
2023/01/01 12:50:00;;;;;;;4.20;3.87;;;16.10;99.90;;;;;;5008619;28;20780;-52
2023/01/01 12:52:39;;;;;;;3.80;3.50;;;16.10;99.90;;;;;;4995322;28;20212;-52
2023/01/01 12:55:30;;;;;;;3.63;3.33;;;16.10;99.90;;;;;;5003373;28;20673;-52
2023/01/01 12:58:05;;;;;;;3.47;3.17;;;16.00;99.90;;;;;;5005418;28;20199;-52
2023/01/01 13:00:34;;;;;;;7.33;3.47;;;16.10;99.90;;;;;;5015315;28;20281;-52
2023/01/01 13:03:06;;;;;;;2.70;2.57;;;16.10;99.90;;;;;;5020770;28;20277;-51
2023/01/01 13:05:37;;;;;;;2.30;2.20;;;16.00;99.90;;;;;;5013251;28;20210;-51